createdAt,value
2022-12-31T00:03:02.819Z,4.41
2022-12-31T00:06:15.649Z,4.51
2022-12-31T00:09:18.206Z,4.45
2022-12-31T00:12:20.664Z,4.52
2022-12-31T00:15:23.228Z,4.50
2022-12-31T00:18:26.998Z,4.50
2022-12-31T00:21:31.692Z,4.54
2022-12-31T00:24:35.916Z,4.51
2022-12-31T00:27:38.427Z,4.58
2022-12-31T00:30:40.922Z,4.65
2022-12-31T00:33:44.282Z,4.56
2022-12-31T00:36:47.410Z,4.56
2022-12-31T00:39:49.901Z,4.49
2022-12-31T00:42:52.425Z,4.45
2022-12-31T00:45:54.983Z,4.42
2022-12-31T00:48:57.621Z,4.41
2022-12-31T00:52:00.188Z,4.38
2022-12-31T00:55:02.817Z,4.47
2022-12-31T00:58:05.395Z,4.46
2022-12-31T01:01:21.943Z,4.51
2022-12-31T01:04:24.667Z,4.55
2022-12-31T01:07:27.232Z,4.46
2022-12-31T01:10:48.304Z,4.41
2022-12-31T01:13:59.983Z,4.42
2022-12-31T01:17:02.508Z,4.42
2022-12-31T01:20:05.504Z,4.47
2022-12-31T01:23:10.091Z,4.51
2022-12-31T01:26:14.688Z,4.55
2022-12-31T01:29:17.321Z,4.57
2022-12-31T01:32:19.801Z,4.55
2022-12-31T01:35:22.378Z,4.57
2022-12-31T01:38:26.350Z,4.49
2022-12-31T01:41:39.016Z,4.58
2022-12-31T01:44:41.450Z,4.61
2022-12-31T01:47:50.043Z,4.57
2022-12-31T01:50:54.660Z,4.53
2022-12-31T01:53:58.731Z,4.50
2022-12-31T01:57:02.069Z,4.46
2022-12-31T02:00:06.378Z,4.53
2022-12-31T02:03:09.677Z,4.53
2022-12-31T02:06:24.120Z,4.46
2022-12-31T02:09:26.586Z,4.52
2022-12-31T02:12:29.127Z,4.43
2022-12-31T02:15:48.576Z,4.43
2022-12-31T02:19:06.637Z,4.42
2022-12-31T02:22:15.891Z,4.51
2022-12-31T02:25:44.818Z,4.38
2022-12-31T02:29:18.051Z,4.38
2022-12-31T02:32:38.940Z,4.41
2022-12-31T02:35:44.173Z,4.41
2022-12-31T02:38:48.746Z,4.46
2022-12-31T02:41:52.077Z,4.40
2022-12-31T02:44:54.688Z,4.42
2022-12-31T02:48:02.497Z,4.42
2022-12-31T02:51:13.889Z,4.44
2022-12-31T02:54:16.269Z,4.46
2022-12-31T02:57:27.291Z,4.33
2022-12-31T03:00:51.551Z,4.32
2022-12-31T03:04:14.085Z,4.33
2022-12-31T03:07:24.944Z,4.37
2022-12-31T03:10:27.518Z,4.33
2022-12-31T03:13:29.994Z,4.35
2022-12-31T03:16:32.807Z,4.37
2022-12-31T03:19:54.300Z,4.32
2022-12-31T03:22:56.872Z,4.32
2022-12-31T03:26:00.823Z,4.33
2022-12-31T03:29:03.374Z,4.29
2022-12-31T03:32:06.219Z,4.36
2022-12-31T03:35:10.001Z,4.34
2022-12-31T03:38:13.225Z,4.36
2022-12-31T03:41:15.833Z,4.34
2022-12-31T03:44:18.257Z,4.29
2022-12-31T03:47:20.743Z,4.28
2022-12-31T03:50:23.307Z,4.28
2022-12-31T03:53:27.427Z,4.32
2022-12-31T03:56:29.891Z,4.20
2022-12-31T03:59:32.475Z,4.30
2022-12-31T04:02:35.359Z,4.29
2022-12-31T04:05:37.927Z,4.30
2022-12-31T04:08:40.430Z,4.45
2022-12-31T04:11:43.177Z,4.34
2022-12-31T04:14:45.593Z,4.34
2022-12-31T04:17:49.352Z,4.36
2022-12-31T04:20:51.849Z,4.40
2022-12-31T04:23:54.348Z,4.45
2022-12-31T04:26:59.650Z,4.34
2022-12-31T04:30:08.057Z,4.36
2022-12-31T04:33:10.612Z,4.42
2022-12-31T04:36:13.124Z,4.45
2022-12-31T04:39:15.693Z,4.43
2022-12-31T04:42:18.163Z,4.44
2022-12-31T04:45:20.634Z,4.39
2022-12-31T04:48:23.076Z,4.40
2022-12-31T04:51:27.458Z,4.32
2022-12-31T04:54:29.883Z,4.31
2022-12-31T04:57:32.350Z,4.28
2022-12-31T05:00:35.507Z,4.29
2022-12-31T05:03:43.416Z,4.33
2022-12-31T05:06:45.990Z,4.41
2022-12-31T05:09:48.460Z,4.42
2022-12-31T05:12:50.905Z,4.37
2022-12-31T05:15:53.525Z,4.38
2022-12-31T05:18:55.960Z,4.41
2022-12-31T05:22:16.661Z,4.38
2022-12-31T05:25:19.129Z,4.48
2022-12-31T05:28:22.099Z,4.52
2022-12-31T05:31:24.997Z,4.41
2022-12-31T05:34:27.498Z,4.35
2022-12-31T05:37:30.735Z,4.41
2022-12-31T05:40:33.399Z,4.33
2022-12-31T05:43:35.945Z,4.34
2022-12-31T05:46:38.467Z,4.37
2022-12-31T05:49:40.907Z,4.32
2022-12-31T05:52:47.575Z,4.34
2022-12-31T05:55:50.481Z,4.35
2022-12-31T05:58:53.052Z,4.50
2022-12-31T06:01:55.601Z,4.48
2022-12-31T06:04:58.117Z,4.48
2022-12-31T06:08:00.629Z,4.52
2022-12-31T06:11:03.402Z,4.59
2022-12-31T06:14:05.922Z,4.59
2022-12-31T06:17:08.470Z,4.56
2022-12-31T06:20:13.277Z,4.49
2022-12-31T06:23:15.970Z,4.52
2022-12-31T06:26:18.480Z,4.48
2022-12-31T06:29:20.987Z,4.53
2022-12-31T06:32:23.412Z,4.51
2022-12-31T06:35:25.867Z,4.48
2022-12-31T06:38:31.419Z,4.58
2022-12-31T06:41:34.021Z,4.59
2022-12-31T06:44:36.458Z,4.61
2022-12-31T06:47:38.963Z,4.57
2022-12-31T06:50:41.700Z,4.55
2022-12-31T06:53:46.257Z,4.58
2022-12-31T06:56:51.023Z,4.52
2022-12-31T06:59:54.195Z,4.54
2022-12-31T07:03:22.945Z,4.56
2022-12-31T07:06:58.103Z,4.58
2022-12-31T07:10:12.278Z,4.49
2022-12-31T07:13:27.780Z,4.51
2022-12-31T07:16:56.312Z,4.51
2022-12-31T07:20:05.418Z,4.60
2022-12-31T07:23:08.538Z,4.68
2022-12-31T07:26:22.996Z,4.72
2022-12-31T07:30:00.123Z,4.76
2022-12-31T07:33:28.036Z,4.80
2022-12-31T07:36:40.824Z,4.81
2022-12-31T07:40:05.899Z,4.81
2022-12-31T07:43:24.149Z,4.79
2022-12-31T07:46:30.886Z,4.88
2022-12-31T07:49:34.265Z,4.87
2022-12-31T07:52:37.987Z,4.85
2022-12-31T07:55:40.542Z,4.88
2022-12-31T07:58:57.681Z,5.04
2022-12-31T08:02:35.326Z,5.10
2022-12-31T08:06:05.457Z,5.12
2022-12-31T08:09:26.549Z,5.07
2022-12-31T08:12:34.243Z,5.09
2022-12-31T08:15:40.421Z,5.03
2022-12-31T08:18:43.325Z,5.11
2022-12-31T08:22:11.695Z,5.29
2022-12-31T08:25:14.155Z,5.28
2022-12-31T08:28:44.140Z,5.36
2022-12-31T08:32:13.275Z,5.41
2022-12-31T08:35:24.585Z,5.42
2022-12-31T08:38:38.323Z,5.42
2022-12-31T08:41:49.661Z,5.41
2022-12-31T08:45:13.785Z,5.27
2022-12-31T08:48:22.283Z,5.26
2022-12-31T08:51:26.813Z,5.26
2022-12-31T08:54:30.305Z,5.18
2022-12-31T08:57:40.214Z,5.23
2022-12-31T09:00:42.843Z,5.27
2022-12-31T09:03:55.862Z,5.22
2022-12-31T09:07:01.821Z,5.10
2022-12-31T09:10:18.559Z,5.23
2022-12-31T09:13:58.508Z,5.32
2022-12-31T09:17:12.918Z,5.44
2022-12-31T09:20:42.985Z,5.55
2022-12-31T09:23:46.792Z,5.62
2022-12-31T09:27:01.100Z,5.57
2022-12-31T09:30:12.034Z,5.49
2022-12-31T09:33:32.655Z,5.54
2022-12-31T09:36:45.912Z,5.45
2022-12-31T09:39:49.089Z,5.52
2022-12-31T09:43:20.574Z,5.72
2022-12-31T09:46:58.373Z,5.87
2022-12-31T09:50:20.908Z,6.05
2022-12-31T09:53:51.019Z,6.13
2022-12-31T09:57:37.464Z,6.01
2022-12-31T10:00:59.558Z,6.13
2022-12-31T10:04:40.348Z,6.24
2022-12-31T10:07:53.929Z,6.27
2022-12-31T10:11:03.104Z,6.44
2022-12-31T10:14:24.886Z,6.43
2022-12-31T10:17:49.495Z,6.48
2022-12-31T10:21:02.582Z,6.58
2022-12-31T10:24:34.718Z,6.80
2022-12-31T10:27:52.014Z,6.72
2022-12-31T10:31:09.992Z,6.92
2022-12-31T10:34:16.689Z,6.92
2022-12-31T10:37:29.072Z,6.93
2022-12-31T10:40:37.676Z,6.88
2022-12-31T10:43:43.763Z,6.97
2022-12-31T10:47:01.289Z,6.76
2022-12-31T10:50:15.742Z,6.69
2022-12-31T10:53:33.025Z,6.50
2022-12-31T10:57:01.209Z,6.54
2022-12-31T11:00:16.943Z,6.49
2022-12-31T11:03:31.624Z,6.54
2022-12-31T11:07:11.435Z,6.60
2022-12-31T11:10:37.722Z,6.59
2022-12-31T11:13:51.488Z,6.64
2022-12-31T11:17:21.142Z,6.80
2022-12-31T11:20:40.326Z,6.94
2022-12-31T11:24:09.966Z,6.98
2022-12-31T11:27:49.701Z,7.06
2022-12-31T11:31:20.816Z,7.18
2022-12-31T11:34:29.495Z,7.32
2022-12-31T11:37:44.346Z,7.48
2022-12-31T11:41:00.041Z,7.48
2022-12-31T11:44:20.983Z,7.59
2022-12-31T11:47:29.227Z,7.73
2022-12-31T11:51:13.229Z,7.61
2022-12-31T11:54:45.924Z,7.68
2022-12-31T11:57:52.751Z,7.75
2022-12-31T12:01:17.282Z,7.52
2022-12-31T12:04:19.808Z,7.56
2022-12-31T12:07:24.233Z,7.55
2022-12-31T12:10:36.004Z,7.53
2022-12-31T12:13:39.373Z,7.70
2022-12-31T12:16:41.912Z,7.71
2022-12-31T12:19:47.276Z,7.71
2022-12-31T12:22:52.508Z,7.80
2022-12-31T12:25:54.991Z,7.83
2022-12-31T12:29:16.220Z,7.75
2022-12-31T12:32:22.656Z,7.58
2022-12-31T12:35:31.586Z,7.69
2022-12-31T12:38:34.066Z,7.56
2022-12-31T12:41:36.590Z,7.58
2022-12-31T12:44:40.259Z,7.71
2022-12-31T12:47:43.915Z,7.73
2022-12-31T12:50:49.247Z,7.82
2022-12-31T12:54:05.184Z,7.77
2022-12-31T12:57:31.905Z,7.97
2022-12-31T13:00:50.111Z,7.92
2022-12-31T13:04:32.587Z,7.91
2022-12-31T13:07:26.789Z,7.88
2022-12-31T13:10:47.045Z,7.87
2022-12-31T13:14:03.023Z,7.93
2022-12-31T13:17:26.936Z,7.92
2022-12-31T13:20:47.843Z,7.78
2022-12-31T13:24:10.228Z,7.86
2022-12-31T13:27:34.091Z,7.86
2022-12-31T13:30:42.622Z,7.82
2022-12-31T13:33:49.707Z,7.66
2022-12-31T13:36:54.320Z,7.61
2022-12-31T13:40:04.972Z,7.61
2022-12-31T13:43:25.753Z,7.44
2022-12-31T13:46:28.176Z,7.51
2022-12-31T13:50:14.257Z,7.45
2022-12-31T13:53:28.056Z,7.49
2022-12-31T13:56:36.982Z,7.54
2022-12-31T13:59:45.533Z,7.59
2022-12-31T14:03:06.471Z,7.64
2022-12-31T14:06:17.741Z,7.45
2022-12-31T14:09:24.999Z,7.34
2022-12-31T14:12:33.235Z,7.35
2022-12-31T14:15:45.260Z,7.36
2022-12-31T14:19:30.718Z,7.39
2022-12-31T14:22:49.881Z,7.44
2022-12-31T14:26:01.211Z,7.49
2022-12-31T14:29:21.056Z,7.44
2022-12-31T14:32:38.463Z,7.52
2022-12-31T14:36:00.441Z,7.48
2022-12-31T14:39:51.347Z,7.49
2022-12-31T14:43:17.784Z,7.47
2022-12-31T14:46:29.849Z,7.44
2022-12-31T14:50:04.672Z,7.45
2022-12-31T14:53:17.748Z,7.32
2022-12-31T14:56:31.382Z,7.21
2022-12-31T14:59:40.122Z,7.15
2022-12-31T15:02:50.336Z,7.10
2022-12-31T15:05:58.595Z,7.06
2022-12-31T15:09:39.757Z,7.13
2022-12-31T15:12:50.784Z,7.17
2022-12-31T15:16:11.541Z,7.20
2022-12-31T15:19:19.651Z,7.19
2022-12-31T15:22:41.000Z,7.12
2022-12-31T15:25:48.221Z,7.16
2022-12-31T15:29:01.252Z,7.40
2022-12-31T15:32:07.720Z,7.34
2022-12-31T15:35:22.016Z,7.32
2022-12-31T15:38:38.323Z,7.19
2022-12-31T15:42:36.233Z,7.10
2022-12-31T15:45:27.565Z,7.05
2022-12-31T15:48:51.639Z,7.05
2022-12-31T15:52:22.679Z,7.12
2022-12-31T15:55:38.737Z,7.07
2022-12-31T15:58:41.610Z,6.99
2022-12-31T16:01:45.743Z,6.82
2022-12-31T16:04:49.336Z,6.78
2022-12-31T16:07:56.626Z,6.70
2022-12-31T16:10:59.997Z,6.55
2022-12-31T16:14:03.687Z,6.49
2022-12-31T16:17:07.568Z,6.45
2022-12-31T16:20:25.542Z,6.38
2022-12-31T16:23:28.127Z,6.41
2022-12-31T16:26:36.683Z,6.50
2022-12-31T16:29:48.178Z,6.50
2022-12-31T16:33:03.203Z,6.38
2022-12-31T16:36:06.047Z,6.37
2022-12-31T16:39:27.308Z,6.28
2022-12-31T16:42:30.747Z,6.21
2022-12-31T16:45:35.925Z,6.10
2022-12-31T16:48:38.948Z,6.04
2022-12-31T16:51:42.072Z,6.07
2022-12-31T16:54:47.468Z,6.02
2022-12-31T16:57:57.953Z,5.93
2022-12-31T17:01:11.390Z,5.90
2022-12-31T17:04:19.025Z,5.90
2022-12-31T17:07:27.662Z,5.83
2022-12-31T17:10:36.250Z,5.72
2022-12-31T17:13:39.027Z,5.68
2022-12-31T17:16:57.743Z,5.63
2022-12-31T17:20:11.051Z,5.54
2022-12-31T17:23:23.753Z,5.56
2022-12-31T17:26:29.231Z,5.57
2022-12-31T17:29:32.516Z,5.81
2022-12-31T17:32:37.903Z,5.77
2022-12-31T17:35:42.809Z,5.85
2022-12-31T17:38:45.301Z,5.93
2022-12-31T17:41:50.695Z,6.00
2022-12-31T17:45:15.273Z,5.96
2022-12-31T17:48:19.834Z,5.84
2022-12-31T17:51:24.641Z,5.76
2022-12-31T17:54:27.271Z,5.61
2022-12-31T17:57:30.054Z,5.52
2022-12-31T18:00:36.942Z,5.42
2022-12-31T18:03:39.410Z,5.36
2022-12-31T18:06:42.039Z,5.35
2022-12-31T18:09:44.475Z,5.37
2022-12-31T18:12:48.843Z,5.34
2022-12-31T18:15:52.498Z,5.33
2022-12-31T18:18:58.770Z,5.23
2022-12-31T18:22:01.297Z,5.29
2022-12-31T18:25:04.375Z,5.40
2022-12-31T18:28:09.546Z,5.42
2022-12-31T18:31:26.826Z,5.52
2022-12-31T18:34:29.314Z,5.46
2022-12-31T18:37:33.481Z,5.41
2022-12-31T18:40:35.992Z,5.50
2022-12-31T18:43:38.471Z,5.57
2022-12-31T18:46:41.872Z,5.56
2022-12-31T18:49:48.652Z,5.54
2022-12-31T18:52:51.259Z,5.61
2022-12-31T18:55:56.552Z,5.55
2022-12-31T18:58:59.821Z,5.41
2022-12-31T19:02:02.776Z,5.33
2022-12-31T19:05:21.792Z,5.15
2022-12-31T19:08:24.573Z,5.09
2022-12-31T19:11:27.098Z,4.98
2022-12-31T19:14:29.697Z,4.97
2022-12-31T19:17:32.223Z,4.99
2022-12-31T19:20:35.767Z,4.87
2022-12-31T19:23:38.370Z,4.84
2022-12-31T19:26:43.596Z,4.70
2022-12-31T19:29:46.362Z,4.76
2022-12-31T19:32:49.075Z,4.92
2022-12-31T19:35:51.475Z,4.88
2022-12-31T19:38:53.978Z,4.75
2022-12-31T19:41:59.420Z,4.73
2022-12-31T19:45:02.372Z,4.63
2022-12-31T19:48:05.766Z,4.59
2022-12-31T19:51:11.908Z,4.53
2022-12-31T19:54:14.514Z,4.42
2022-12-31T19:57:17.033Z,4.33
2022-12-31T20:00:22.358Z,4.18
2022-12-31T20:03:25.436Z,4.05
2022-12-31T20:06:28.046Z,3.98
2022-12-31T20:09:30.514Z,3.95
2022-12-31T20:12:34.080Z,4.03
2022-12-31T20:15:39.257Z,4.06
2022-12-31T20:18:43.035Z,4.08
2022-12-31T20:21:45.869Z,4.02
2022-12-31T20:24:48.333Z,3.89
2022-12-31T20:27:54.845Z,3.83
2022-12-31T20:30:57.478Z,3.71
2022-12-31T20:34:00.039Z,3.73
2022-12-31T20:37:02.501Z,3.74
2022-12-31T20:40:05.476Z,3.61
2022-12-31T20:43:08.167Z,3.59
2022-12-31T20:46:18.125Z,3.51
2022-12-31T20:49:37.138Z,3.71
2022-12-31T20:52:44.063Z,3.91
2022-12-31T20:55:46.490Z,3.88
2022-12-31T20:58:49.270Z,3.94
2022-12-31T21:05:14.429Z,3.70
2022-12-31T21:08:17.483Z,3.59
2022-12-31T21:11:38.433Z,3.62
2022-12-31T21:14:44.711Z,3.67
2022-12-31T21:17:47.672Z,3.65
2022-12-31T21:20:52.273Z,3.64
2022-12-31T21:23:54.834Z,3.65
2022-12-31T21:26:57.530Z,3.63
2022-12-31T21:33:22.464Z,3.68
2022-12-31T21:36:24.890Z,3.65
2022-12-31T21:39:27.800Z,3.53
2022-12-31T21:42:30.332Z,3.57
2022-12-31T21:45:32.977Z,3.33
2022-12-31T21:48:35.592Z,3.23
2022-12-31T21:51:57.989Z,3.24
2022-12-31T21:55:21.216Z,3.25
2022-12-31T21:58:26.802Z,3.21
2022-12-31T22:01:48.431Z,3.16
2022-12-31T22:05:16.384Z,3.19
2022-12-31T22:08:14.033Z,3.06
2022-12-31T22:11:18.440Z,3.07
2022-12-31T22:14:20.967Z,2.98
2022-12-31T22:17:23.424Z,3.08
2022-12-31T22:20:27.601Z,3.10
2022-12-31T22:23:31.678Z,3.04
2022-12-31T22:26:34.712Z,3.00
2022-12-31T22:29:37.195Z,2.96
2022-12-31T22:32:39.647Z,2.87
2022-12-31T22:35:42.078Z,2.83
2022-12-31T22:38:45.433Z,2.77
2022-12-31T22:41:47.873Z,2.71
2022-12-31T22:44:50.306Z,2.70
2022-12-31T22:47:53.121Z,2.73
2022-12-31T22:50:57.177Z,2.79
2022-12-31T22:53:59.700Z,2.77
2022-12-31T22:57:02.209Z,2.74
2022-12-31T23:00:10.130Z,2.71
2022-12-31T23:03:13.525Z,2.83
2022-12-31T23:06:16.808Z,2.66
2022-12-31T23:09:37.651Z,2.68
2022-12-31T23:12:40.191Z,2.63
2022-12-31T23:16:04.062Z,2.65
2022-12-31T23:19:25.930Z,2.70
2022-12-31T23:22:46.830Z,2.68
2022-12-31T23:25:51.297Z,2.72
2022-12-31T23:28:53.762Z,2.62
2022-12-31T23:31:56.428Z,2.50
2022-12-31T23:35:02.171Z,2.61
2022-12-31T23:38:07.232Z,2.57
2022-12-31T23:41:14.371Z,2.55
2022-12-31T23:44:16.891Z,2.48
2022-12-31T23:47:20.254Z,2.48
2022-12-31T23:50:23.557Z,2.45
2022-12-31T23:53:26.311Z,2.45
2022-12-31T23:56:28.806Z,2.57
2022-12-31T23:59:31.411Z,2.64
